sensor_id;sensor_type;location;lat;lon;timestamp;P1;durP1;ratioP1;P2;durP2;ratioP2
5702;SDS011;2876;51.738;10.050;2022-08-01T00:02:45;5.13;;;4.63;;
5702;SDS011;2876;51.738;10.050;2022-08-01T00:08:47;6.20;;;4.47;;
5702;SDS011;2876;51.738;10.050;2022-08-01T00:14:49;5.00;;;4.50;;
5702;SDS011;2876;51.738;10.050;2022-08-01T00:20:52;6.00;;;4.40;;
5702;SDS011;2876;51.738;10.050;2022-08-01T00:26:54;4.20;;;3.40;;
5702;SDS011;2876;51.738;10.050;2022-08-01T00:32:56;3.87;;;3.57;;
5702;SDS011;2876;51.738;10.050;2022-08-01T00:38:58;4.53;;;4.03;;
5702;SDS011;2876;51.738;10.050;2022-08-01T00:45:00;6.37;;;4.70;;
5702;SDS011;2876;51.738;10.050;2022-08-01T00:51:03;6.60;;;5.00;;
5702;SDS011;2876;51.738;10.050;2022-08-01T00:57:06;5.63;;;4.80;;
5702;SDS011;2876;51.738;10.050;2022-08-01T01:03:10;7.30;;;4.13;;
5702;SDS011;2876;51.738;10.050;2022-08-01T01:22:25;5.67;;;5.17;;
5702;SDS011;2876;51.738;10.050;2022-08-01T01:29:21;5.47;;;4.97;;
5702;SDS011;2876;51.738;10.050;2022-08-01T01:35:51;9.33;;;6.00;;
5702;SDS011;2876;51.738;10.050;2022-08-01T01:41:59;5.17;;;4.77;;
5702;SDS011;2876;51.738;10.050;2022-08-01T01:48:03;6.30;;;5.70;;
5702;SDS011;2876;51.738;10.050;2022-08-01T01:54:07;5.87;;;5.30;;
5702;SDS011;2876;51.738;10.050;2022-08-01T02:00:11;4.13;;;3.77;;
5702;SDS011;2876;51.738;10.050;2022-08-01T02:06:15;3.40;;;3.10;;
5702;SDS011;2876;51.738;10.050;2022-08-01T02:12:17;4.30;;;3.20;;
5702;SDS011;2876;51.738;10.050;2022-08-01T02:18:22;3.60;;;3.30;;
5702;SDS011;2876;51.738;10.050;2022-08-01T02:24:39;3.03;;;2.83;;
5702;SDS011;2876;51.738;10.050;2022-08-01T02:30:48;3.97;;;3.67;;
5702;SDS011;2876;51.738;10.050;2022-08-01T02:36:51;3.67;;;3.37;;
5702;SDS011;2876;51.738;10.050;2022-08-01T02:42:57;3.70;;;3.23;;
5702;SDS011;2876;51.738;10.050;2022-08-01T02:49:03;4.37;;;3.97;;
5702;SDS011;2876;51.738;10.050;2022-08-01T02:55:11;4.13;;;3.10;;
5702;SDS011;2876;51.738;10.050;2022-08-01T03:01:15;3.50;;;3.20;;
5702;SDS011;2876;51.738;10.050;2022-08-01T03:07:20;3.40;;;2.97;;
5702;SDS011;2876;51.738;10.050;2022-08-01T03:13:34;3.10;;;2.70;;
5702;SDS011;2876;51.738;10.050;2022-08-01T03:19:38;3.07;;;2.50;;
5702;SDS011;2876;51.738;10.050;2022-08-01T03:25:41;2.63;;;2.40;;
5702;SDS011;2876;51.738;10.050;2022-08-01T03:31:46;4.37;;;2.60;;
5702;SDS011;2876;51.738;10.050;2022-08-01T03:37:50;4.00;;;3.20;;
5702;SDS011;2876;51.738;10.050;2022-08-01T03:44:17;3.10;;;2.80;;
5702;SDS011;2876;51.738;10.050;2022-08-01T03:50:24;3.53;;;2.93;;
5702;SDS011;2876;51.738;10.050;2022-08-01T03:56:28;3.50;;;3.20;;
5702;SDS011;2876;51.738;10.050;2022-08-01T04:02:33;4.27;;;2.70;;
5702;SDS011;2876;51.738;10.050;2022-08-01T04:08:37;5.80;;;3.40;;
5702;SDS011;2876;51.738;10.050;2022-08-01T04:14:41;3.47;;;3.17;;
5702;SDS011;2876;51.738;10.050;2022-08-01T04:20:43;3.30;;;2.90;;
5702;SDS011;2876;51.738;10.050;2022-08-01T04:26:47;5.23;;;4.07;;
5702;SDS011;2876;51.738;10.050;2022-08-01T04:32:52;3.33;;;3.03;;
5702;SDS011;2876;51.738;10.050;2022-08-01T04:38:59;3.00;;;2.70;;
5702;SDS011;2876;51.738;10.050;2022-08-01T04:45:03;2.80;;;2.57;;
5702;SDS011;2876;51.738;10.050;2022-08-01T04:51:13;4.23;;;2.97;;
5702;SDS011;2876;51.738;10.050;2022-08-01T04:57:16;3.50;;;3.20;;
5702;SDS011;2876;51.738;10.050;2022-08-01T05:03:18;5.00;;;3.00;;
5702;SDS011;2876;51.738;10.050;2022-08-01T05:09:20;4.00;;;3.10;;
5702;SDS011;2876;51.738;10.050;2022-08-01T05:15:22;4.20;;;3.20;;
5702;SDS011;2876;51.738;10.050;2022-08-01T05:21:24;2.57;;;2.37;;
5702;SDS011;2876;51.738;10.050;2022-08-01T05:27:27;2.80;;;2.37;;
5702;SDS011;2876;51.738;10.050;2022-08-01T05:33:31;3.00;;;2.57;;
5702;SDS011;2876;51.738;10.050;2022-08-01T05:39:33;3.90;;;2.77;;
5702;SDS011;2876;51.738;10.050;2022-08-01T05:45:35;3.13;;;2.60;;
5702;SDS011;2876;51.738;10.050;2022-08-01T05:51:38;2.47;;;2.10;;
5702;SDS011;2876;51.738;10.050;2022-08-01T05:57:40;4.47;;;2.70;;
5702;SDS011;2876;51.738;10.050;2022-08-01T06:03:41;2.93;;;2.60;;
5702;SDS011;2876;51.738;10.050;2022-08-01T06:09:44;5.97;;;2.63;;
5702;SDS011;2876;51.738;10.050;2022-08-01T06:15:46;6.40;;;2.73;;
5702;SDS011;2876;51.738;10.050;2022-08-01T06:21:48;2.37;;;2.17;;
5702;SDS011;2876;51.738;10.050;2022-08-01T06:27:50;3.17;;;2.30;;
5702;SDS011;2876;51.738;10.050;2022-08-01T06:33:52;3.10;;;2.40;;
5702;SDS011;2876;51.738;10.050;2022-08-01T06:39:54;2.30;;;2.10;;
5702;SDS011;2876;51.738;10.050;2022-08-01T06:45:57;6.60;;;1.90;;
5702;SDS011;2876;51.738;10.050;2022-08-01T06:51:59;2.90;;;2.13;;
5702;SDS011;2876;51.738;10.050;2022-08-01T06:58:01;6.37;;;1.90;;
5702;SDS011;2876;51.738;10.050;2022-08-01T07:04:03;2.67;;;1.83;;
5702;SDS011;2876;51.738;10.050;2022-08-01T07:10:06;1.77;;;1.43;;
5702;SDS011;2876;51.738;10.050;2022-08-01T07:16:09;1.50;;;1.40;;
5702;SDS011;2876;51.738;10.050;2022-08-01T07:22:11;1.87;;;1.53;;
5702;SDS011;2876;51.738;10.050;2022-08-01T07:28:23;3.87;;;1.90;;
5702;SDS011;2876;51.738;10.050;2022-08-01T07:34:25;2.13;;;1.23;;
5702;SDS011;2876;51.738;10.050;2022-08-01T07:40:27;1.30;;;1.00;;
5702;SDS011;2876;51.738;10.050;2022-08-01T07:46:29;1.20;;;1.10;;
5702;SDS011;2876;51.738;10.050;2022-08-01T07:52:32;1.43;;;1.33;;
5702;SDS011;2876;51.738;10.050;2022-08-01T07:58:34;2.70;;;1.10;;
5702;SDS011;2876;51.738;10.050;2022-08-01T08:04:36;1.30;;;1.20;;
5702;SDS011;2876;51.738;10.050;2022-08-01T08:10:38;1.80;;;1.17;;
5702;SDS011;2876;51.738;10.050;2022-08-01T08:16:41;1.37;;;1.10;;
5702;SDS011;2876;51.738;10.050;2022-08-01T08:22:44;2.87;;;1.40;;
5702;SDS011;2876;51.738;10.050;2022-08-01T08:28:46;1.20;;;1.10;;
5702;SDS011;2876;51.738;10.050;2022-08-01T08:34:48;1.20;;;1.10;;
5702;SDS011;2876;51.738;10.050;2022-08-01T08:40:50;1.10;;;1.00;;
5702;SDS011;2876;51.738;10.050;2022-08-01T08:46:53;1.57;;;1.30;;
5702;SDS011;2876;51.738;10.050;2022-08-01T08:52:58;1.20;;;1.00;;
5702;SDS011;2876;51.738;10.050;2022-08-01T08:59:06;3.57;;;1.00;;
5702;SDS011;2876;51.738;10.050;2022-08-01T09:05:09;1.50;;;1.40;;
5702;SDS011;2876;51.738;10.050;2022-08-01T09:11:19;3.10;;;1.20;;
5702;SDS011;2876;51.738;10.050;2022-08-01T09:17:23;1.90;;;1.37;;
5702;SDS011;2876;51.738;10.050;2022-08-01T09:23:32;1.30;;;1.20;;
5702;SDS011;2876;51.738;10.050;2022-08-01T09:29:54;0.90;;;0.80;;
5702;SDS011;2876;51.738;10.050;2022-08-01T09:36:20;9.20;;;1.20;;
5702;SDS011;2876;51.738;10.050;2022-08-01T09:42:25;1.20;;;1.10;;
5702;SDS011;2876;51.738;10.050;2022-08-01T09:48:29;0.90;;;0.90;;
5702;SDS011;2876;51.738;10.050;2022-08-01T09:54:33;1.40;;;1.30;;
5702;SDS011;2876;51.738;10.050;2022-08-01T10:00:35;1.30;;;1.20;;
5702;SDS011;2876;51.738;10.050;2022-08-01T10:06:46;1.30;;;1.10;;
5702;SDS011;2876;51.738;10.050;2022-08-01T10:12:56;0.80;;;0.80;;
5702;SDS011;2876;51.738;10.050;2022-08-01T10:19:01;0.90;;;0.90;;
5702;SDS011;2876;51.738;10.050;2022-08-01T10:25:12;0.90;;;0.80;;
5702;SDS011;2876;51.738;10.050;2022-08-01T10:31:39;0.90;;;0.90;;
5702;SDS011;2876;51.738;10.050;2022-08-01T10:37:50;0.93;;;0.90;;
5702;SDS011;2876;51.738;10.050;2022-08-01T10:43:57;2.10;;;1.07;;
5702;SDS011;2876;51.738;10.050;2022-08-01T10:50:08;1.07;;;0.97;;
5702;SDS011;2876;51.738;10.050;2022-08-01T10:56:39;1.00;;;0.90;;
5702;SDS011;2876;51.738;10.050;2022-08-01T11:02:58;0.90;;;0.90;;
5702;SDS011;2876;51.738;10.050;2022-08-01T11:09:05;0.90;;;0.90;;
5702;SDS011;2876;51.738;10.050;2022-08-01T11:15:37;0.87;;;0.87;;
5702;SDS011;2876;51.738;10.050;2022-08-01T11:41:13;1.00;;;1.00;;
5702;SDS011;2876;51.738;10.050;2022-08-01T11:47:15;8.23;;;1.17;;
5702;SDS011;2876;51.738;10.050;2022-08-01T11:53:21;1.20;;;1.10;;
5702;SDS011;2876;51.738;10.050;2022-08-01T11:59:27;1.00;;;0.90;;
5702;SDS011;2876;51.738;10.050;2022-08-01T12:05:38;1.17;;;1.10;;
5702;SDS011;2876;51.738;10.050;2022-08-01T12:11:45;1.00;;;0.90;;
5702;SDS011;2876;51.738;10.050;2022-08-01T12:17:53;1.20;;;1.10;;
5702;SDS011;2876;51.738;10.050;2022-08-01T12:24:00;2.30;;;1.07;;
5702;SDS011;2876;51.738;10.050;2022-08-01T12:30:07;1.30;;;1.20;;
5702;SDS011;2876;51.738;10.050;2022-08-01T12:36:26;1.20;;;1.10;;
5702;SDS011;2876;51.738;10.050;2022-08-01T12:42:29;1.10;;;1.00;;
5702;SDS011;2876;51.738;10.050;2022-08-01T12:48:32;1.40;;;1.30;;
5702;SDS011;2876;51.738;10.050;2022-08-01T13:01:12;3.53;;;1.30;;
5702;SDS011;2876;51.738;10.050;2022-08-01T13:07:14;5.57;;;1.50;;
5702;SDS011;2876;51.738;10.050;2022-08-01T13:13:17;2.70;;;1.20;;
5702;SDS011;2876;51.738;10.050;2022-08-01T13:19:41;3.27;;;1.17;;
5702;SDS011;2876;51.738;10.050;2022-08-01T13:25:49;1.00;;;1.00;;
5702;SDS011;2876;51.738;10.050;2022-08-01T13:31:56;1.17;;;1.07;;
5702;SDS011;2876;51.738;10.050;2022-08-01T13:38:00;1.17;;;1.07;;
5702;SDS011;2876;51.738;10.050;2022-08-01T13:44:02;1.83;;;1.40;;
5702;SDS011;2876;51.738;10.050;2022-08-01T13:50:04;1.60;;;1.50;;
5702;SDS011;2876;51.738;10.050;2022-08-01T13:56:06;2.70;;;1.30;;
5702;SDS011;2876;51.738;10.050;2022-08-01T14:02:08;3.53;;;1.20;;
5702;SDS011;2876;51.738;10.050;2022-08-01T14:08:11;1.50;;;1.40;;
5702;SDS011;2876;51.738;10.050;2022-08-01T14:14:14;1.67;;;1.30;;
5702;SDS011;2876;51.738;10.050;2022-08-01T14:20:16;1.73;;;1.30;;
5702;SDS011;2876;51.738;10.050;2022-08-01T14:26:20;1.60;;;1.50;;
5702;SDS011;2876;51.738;10.050;2022-08-01T14:32:22;3.40;;;2.20;;
5702;SDS011;2876;51.738;10.050;2022-08-01T14:38:29;2.10;;;1.90;;
5702;SDS011;2876;51.738;10.050;2022-08-01T14:44:33;2.87;;;1.70;;
5702;SDS011;2876;51.738;10.050;2022-08-01T14:50:36;2.57;;;2.10;;
5702;SDS011;2876;51.738;10.050;2022-08-01T14:56:38;2.30;;;2.10;;
5702;SDS011;2876;51.738;10.050;2022-08-01T15:02:40;2.40;;;2.20;;
5702;SDS011;2876;51.738;10.050;2022-08-01T15:08:43;3.00;;;2.80;;
5702;SDS011;2876;51.738;10.050;2022-08-01T15:14:45;4.00;;;2.87;;
5702;SDS011;2876;51.738;10.050;2022-08-01T15:20:51;2.63;;;2.43;;
5702;SDS011;2876;51.738;10.050;2022-08-01T15:26:53;2.90;;;2.70;;
5702;SDS011;2876;51.738;10.050;2022-08-01T15:32:55;3.43;;;2.90;;
5702;SDS011;2876;51.738;10.050;2022-08-01T15:38:57;5.70;;;2.50;;
5702;SDS011;2876;51.738;10.050;2022-08-01T15:44:59;4.20;;;2.20;;
5702;SDS011;2876;51.738;10.050;2022-08-01T15:51:02;7.37;;;2.70;;
5702;SDS011;2876;51.738;10.050;2022-08-01T15:57:04;2.77;;;2.40;;
5702;SDS011;2876;51.738;10.050;2022-08-01T16:03:06;2.77;;;2.00;;
5702;SDS011;2876;51.738;10.050;2022-08-01T16:09:10;4.90;;;2.70;;
5702;SDS011;2876;51.738;10.050;2022-08-01T16:15:19;2.90;;;2.20;;
5702;SDS011;2876;51.738;10.050;2022-08-01T16:21:21;5.33;;;2.43;;
5702;SDS011;2876;51.738;10.050;2022-08-01T16:27:25;3.77;;;2.40;;
5702;SDS011;2876;51.738;10.050;2022-08-01T16:33:28;3.07;;;2.43;;
5702;SDS011;2876;51.738;10.050;2022-08-01T16:39:51;3.57;;;2.10;;
5702;SDS011;2876;51.738;10.050;2022-08-01T16:45:56;4.97;;;2.30;;
5702;SDS011;2876;51.738;10.050;2022-08-01T16:51:58;3.67;;;2.00;;
5702;SDS011;2876;51.738;10.050;2022-08-01T16:58:00;4.07;;;2.13;;
5702;SDS011;2876;51.738;10.050;2022-08-01T17:04:03;3.40;;;2.00;;
5702;SDS011;2876;51.738;10.050;2022-08-01T17:10:05;4.87;;;2.80;;
5702;SDS011;2876;51.738;10.050;2022-08-01T17:16:09;6.23;;;2.60;;
5702;SDS011;2876;51.738;10.050;2022-08-01T17:22:11;4.23;;;2.43;;
5702;SDS011;2876;51.738;10.050;2022-08-01T17:28:13;2.50;;;2.03;;
5702;SDS011;2876;51.738;10.050;2022-08-01T17:34:15;5.67;;;2.37;;
5702;SDS011;2876;51.738;10.050;2022-08-01T17:40:18;5.43;;;2.80;;
5702;SDS011;2876;51.738;10.050;2022-08-01T17:46:39;5.63;;;3.87;;
5702;SDS011;2876;51.738;10.050;2022-08-01T17:52:41;3.50;;;2.10;;
5702;SDS011;2876;51.738;10.050;2022-08-01T17:58:44;3.67;;;2.40;;
5702;SDS011;2876;51.738;10.050;2022-08-01T18:04:52;5.57;;;2.43;;
5702;SDS011;2876;51.738;10.050;2022-08-01T18:10:55;8.23;;;2.70;;
5702;SDS011;2876;51.738;10.050;2022-08-01T18:16:57;4.33;;;2.90;;
5702;SDS011;2876;51.738;10.050;2022-08-01T18:22:59;5.73;;;2.90;;
5702;SDS011;2876;51.738;10.050;2022-08-01T18:29:01;4.43;;;3.40;;
5702;SDS011;2876;51.738;10.050;2022-08-01T18:35:03;3.90;;;2.80;;
5702;SDS011;2876;51.738;10.050;2022-08-01T18:41:14;6.53;;;2.97;;
5702;SDS011;2876;51.738;10.050;2022-08-01T18:47:16;4.83;;;2.93;;
5702;SDS011;2876;51.738;10.050;2022-08-01T18:53:18;6.17;;;3.20;;
5702;SDS011;2876;51.738;10.050;2022-08-01T18:59:22;4.80;;;2.70;;
5702;SDS011;2876;51.738;10.050;2022-08-01T19:05:24;5.00;;;3.00;;
5702;SDS011;2876;51.738;10.050;2022-08-01T19:11:26;6.17;;;4.27;;
5702;SDS011;2876;51.738;10.050;2022-08-01T19:17:28;5.20;;;3.70;;
5702;SDS011;2876;51.738;10.050;2022-08-01T19:23:30;5.87;;;4.60;;
5702;SDS011;2876;51.738;10.050;2022-08-01T19:29:55;6.97;;;4.90;;
5702;SDS011;2876;51.738;10.050;2022-08-01T19:36:01;5.73;;;5.13;;
5702;SDS011;2876;51.738;10.050;2022-08-01T19:42:03;6.17;;;5.03;;
5702;SDS011;2876;51.738;10.050;2022-08-01T19:48:06;7.17;;;5.70;;
5702;SDS011;2876;51.738;10.050;2022-08-01T19:54:09;5.47;;;4.97;;
5702;SDS011;2876;51.738;10.050;2022-08-01T20:00:12;6.33;;;5.70;;
5702;SDS011;2876;51.738;10.050;2022-08-01T20:06:28;6.70;;;6.00;;
5702;SDS011;2876;51.738;10.050;2022-08-01T20:12:31;7.23;;;6.53;;
5702;SDS011;2876;51.738;10.050;2022-08-01T20:18:34;10.53;;;6.00;;
5702;SDS011;2876;51.738;10.050;2022-08-01T20:24:37;9.10;;;6.50;;
5702;SDS011;2876;51.738;10.050;2022-08-01T20:30:43;6.90;;;6.13;;
5702;SDS011;2876;51.738;10.050;2022-08-01T20:36:46;8.60;;;5.80;;
5702;SDS011;2876;51.738;10.050;2022-08-01T20:42:57;7.07;;;6.37;;
5702;SDS011;2876;51.738;10.050;2022-08-01T20:48:59;8.27;;;7.10;;
5702;SDS011;2876;51.738;10.050;2022-08-01T20:55:02;7.93;;;6.43;;
5702;SDS011;2876;51.738;10.050;2022-08-01T21:01:05;10.13;;;8.97;;
5702;SDS011;2876;51.738;10.050;2022-08-01T21:13:40;7.47;;;6.77;;
5702;SDS011;2876;51.738;10.050;2022-08-01T21:19:46;7.23;;;6.30;;
5702;SDS011;2876;51.738;10.050;2022-08-01T21:25:56;10.80;;;6.83;;
5702;SDS011;2876;51.738;10.050;2022-08-01T21:32:00;8.60;;;6.10;;
5702;SDS011;2876;51.738;10.050;2022-08-01T21:38:14;10.70;;;7.33;;
5702;SDS011;2876;51.738;10.050;2022-08-01T21:44:18;8.67;;;7.17;;
5702;SDS011;2876;51.738;10.050;2022-08-01T21:50:29;7.67;;;6.50;;
5702;SDS011;2876;51.738;10.050;2022-08-01T21:57:00;13.43;;;9.70;;
5702;SDS011;2876;51.738;10.050;2022-08-01T22:09:37;9.60;;;7.40;;
5702;SDS011;2876;51.738;10.050;2022-08-01T22:15:43;9.13;;;7.00;;
5702;SDS011;2876;51.738;10.050;2022-08-01T22:21:45;11.73;;;5.33;;
5702;SDS011;2876;51.738;10.050;2022-08-01T22:27:48;9.70;;;5.30;;
5702;SDS011;2876;51.738;10.050;2022-08-01T22:34:09;7.77;;;4.50;;
5702;SDS011;2876;51.738;10.050;2022-08-01T22:40:14;8.33;;;4.07;;
5702;SDS011;2876;51.738;10.050;2022-08-01T22:53:02;10.97;;;4.10;;
5702;SDS011;2876;51.738;10.050;2022-08-01T22:59:14;6.10;;;4.60;;
5702;SDS011;2876;51.738;10.050;2022-08-01T23:05:48;7.83;;;4.40;;
5702;SDS011;2876;51.738;10.050;2022-08-01T23:12:07;4.93;;;3.93;;
5702;SDS011;2876;51.738;10.050;2022-08-01T23:18:11;6.87;;;4.20;;
5702;SDS011;2876;51.738;10.050;2022-08-01T23:24:14;7.70;;;4.90;;
5702;SDS011;2876;51.738;10.050;2022-08-01T23:30:16;7.10;;;5.70;;
5702;SDS011;2876;51.738;10.050;2022-08-01T23:36:18;10.73;;;5.40;;
5702;SDS011;2876;51.738;10.050;2022-08-01T23:42:20;9.80;;;6.60;;
5702;SDS011;2876;51.738;10.050;2022-08-01T23:48:22;6.53;;;4.30;;
5702;SDS011;2876;51.738;10.050;2022-08-01T23:54:25;8.97;;;5.10;;
